Pembroke, NC

11:08 PM EDT on April 25, 2017 (GMT -0400)
Hunter's Run | | Change Station
Active Advisory: Flood Warning Active Notice: Public Information Statement

Elev 175 ft 34.66 °N, 79.18 °W | Updated 4 minutes ago

Mostly Cloudy
Mostly Cloudy
63.0 °F
Feels Like 63.0 °F
N
5.0
Wind Variable Wind from West
Gusts 8.0 mph

Today
High -- | Low -- °F
--% Chance of Precip.
Yesterday
High -- | Low -- °F
Precip. -- in
Pressure 29.75 in
Visibility 10.0 miles
Clouds Scattered Clouds 2000 ft
Overcast 2800 ft
Dew Point 61 °F
Humidity 93%
Rainfall 0.17 in
Snow Depth Not available.
6:32 AM 7:57 PM
Waning Crescent, 0% visible
METAR KLBT 260254Z AUTO 26005KT 10SM SCT020 OVC028 17/16 A2976 RMK AO2 SLP075 T01720156 51013
Pressure 29.75 in
Visibility 10.0 miles
Clouds Scattered Clouds 2000 ft
Overcast 2800 ft
Dew Point 61 °F
Humidity 93%
Rainfall 0.17 in
Snow Depth Not available.
6:32 AM 7:57 PM
Waning Crescent, 0% visible
METAR KLBT 260254Z AUTO 26005KT 10SM SCT020 OVC028 17/16 A2976 RMK AO2 SLP075 T01720156 51013

Get Your Daily Forecast Email!

Thanks for signing up!

Be on the lookout for a verification email in your inbox.

You'll start receiving severe weather alerts in your inbox..

×

10-Day Weather Forecast

Almanac

Astronomy

Apr. 25, 2017 Rise Set
Actual Time
Civil Twilight
Nautical Twilight
Astronomical Twilight
Moon
Length of Visible Light
Length of Day
Tomorrow will be .
, % of the Moon is Illuminated

Today's Extremes

State Highs State Lows

Community

WunderPhotos

WunderBlog® & News

Nearby

Air Quality

  Air Quality AQ Index Pollutant
Not available.

Snow Depth

Station Depth Elevation

Earthquake Activity

City Distance Mag. Time & Date
Minimum magnitude displayed is 2.5.

Coastal Water Temperatures

Place Temperature

Stations

Nearby Weather Stations

Station Location Temp. Windchill Dew Point Humidity Wind Precip. Elev Updated Type
                   

Watches & Warnings

Flood Warning
Issued: 10:11 PM EDT Apr. 25, 2017 – National Weather Service

... Flood Warning now in effect until Thursday morning...
the Flood Warning continues for
the lumber near Lumberton.
* Until Thursday morning.
* At 7:49 PM Tuesday the stage was 13.37 feet.
* Flood stage is 13.0 feet.
* Minor flooding is occurring and minor flooding is forecast.
* Forecast... the river will continue rising to near 13.4 feet by just after
midnight tonight. The river will fall below flood stage late tomorrow evening.
* Impact... at 13.0 feet... low land flooding will occur along the river. The flood
waters may affect some residential property as water backs up into the
drainage ditches in the city.


Lat... Lon 3467 7916 3468 7904 3457 7891 3452 7899
          3461 7907 3458 7915